createdAt,value
2023-02-23T00:01:20.006Z,6.36
2023-02-23T00:04:22.757Z,6.39
2023-02-23T00:07:26.474Z,6.21
2023-02-23T00:10:28.543Z,6.02
2023-02-23T00:13:31.635Z,6.12
2023-02-23T00:16:33.674Z,6.14
2023-02-23T00:19:36.751Z,5.94
2023-02-23T00:22:41.465Z,5.93
2023-02-23T00:25:43.225Z,5.87
2023-02-23T00:28:44.981Z,5.74
2023-02-23T00:31:49.819Z,5.78
2023-02-23T00:34:53.062Z,5.68
2023-02-23T00:37:57.047Z,5.57
2023-02-23T00:40:59.227Z,5.68
2023-02-23T00:44:01.256Z,5.60
2023-02-23T00:47:03.208Z,5.67
2023-02-23T00:50:06.385Z,5.70
2023-02-23T00:53:11.498Z,5.54
2023-02-23T00:56:15.909Z,5.23
2023-02-23T00:59:19.359Z,5.20
2023-02-23T01:02:21.403Z,5.08
2023-02-23T01:05:24.584Z,5.19
2023-02-23T01:08:30.505Z,5.28
2023-02-23T01:11:32.498Z,5.15
2023-02-23T01:14:35.430Z,5.20
2023-02-23T01:17:38.493Z,5.25
2023-02-23T01:20:42.348Z,5.21
2023-02-23T01:23:45.947Z,5.23
2023-02-23T01:26:47.826Z,5.13
2023-02-23T01:29:52.818Z,5.22
2023-02-23T01:32:54.697Z,5.10
2023-02-23T01:35:59.739Z,5.08
2023-02-23T01:39:03.693Z,5.03
2023-02-23T01:42:12.974Z,4.92
2023-02-23T01:45:21.544Z,4.77
2023-02-23T01:48:28.584Z,4.83
2023-02-23T01:51:34.373Z,4.94
2023-02-23T01:54:42.062Z,4.85
2023-02-23T01:57:44.514Z,4.93
2023-02-23T02:00:50.089Z,4.79
2023-02-23T02:03:56.203Z,4.69
2023-02-23T02:06:58.022Z,4.78
2023-02-23T02:10:01.353Z,4.90
2023-02-23T02:13:03.260Z,4.77
2023-02-23T02:16:25.964Z,4.81
2023-02-23T02:19:59.245Z,4.69
2023-02-23T02:23:39.592Z,4.78
2023-02-23T02:26:57.431Z,4.75
2023-02-23T02:30:52.828Z,4.90
2023-02-23T02:34:14.576Z,4.83
2023-02-23T02:37:32.467Z,4.82
2023-02-23T02:40:45.055Z,4.98
2023-02-23T02:43:53.705Z,4.98
2023-02-23T02:47:01.362Z,5.13
2023-02-23T02:50:09.389Z,4.93
2023-02-23T02:53:17.736Z,5.00
2023-02-23T02:56:25.477Z,4.89
2023-02-23T02:59:28.366Z,4.87
2023-02-23T03:02:33.525Z,4.90
2023-02-23T03:05:40.609Z,4.86
2023-02-23T03:08:50.736Z,4.68
2023-02-23T03:12:06.375Z,4.64
2023-02-23T03:15:30.202Z,4.55
2023-02-23T03:18:47.856Z,4.45
2023-02-23T03:21:56.592Z,4.53
2023-02-23T03:25:18.657Z,4.61
2023-02-23T03:28:28.136Z,4.50
2023-02-23T03:31:37.493Z,4.52
2023-02-23T03:34:44.484Z,4.38
2023-02-23T03:37:54.322Z,4.51
2023-02-23T03:41:00.033Z,4.55
2023-02-23T03:44:08.015Z,4.39
2023-02-23T03:47:14.415Z,4.38
2023-02-23T03:50:24.002Z,4.38
2023-02-23T03:53:30.620Z,4.25
2023-02-23T03:56:37.196Z,3.98
2023-02-23T03:59:44.113Z,4.05
2023-02-23T04:02:49.981Z,4.04
2023-02-23T04:05:54.823Z,4.05
2023-02-23T04:08:59.650Z,4.13
2023-02-23T04:12:09.996Z,4.07
2023-02-23T04:15:16.229Z,3.95
2023-02-23T04:18:23.540Z,4.04
2023-02-23T04:21:28.396Z,4.00
2023-02-23T04:24:37.787Z,4.05
2023-02-23T04:27:41.194Z,4.07
2023-02-23T04:30:43.736Z,3.91
2023-02-23T04:33:45.961Z,4.02
2023-02-23T04:36:49.454Z,3.99
2023-02-23T04:39:51.482Z,3.84
2023-02-23T04:42:55.589Z,3.78
2023-02-23T04:45:57.428Z,3.90
2023-02-23T04:48:59.198Z,3.84
2023-02-23T04:52:01.700Z,3.86
2023-02-23T04:55:04.850Z,3.84
2023-02-23T04:58:10.223Z,3.78
2023-02-23T05:01:12.018Z,3.70
2023-02-23T05:04:15.350Z,3.75
2023-02-23T05:07:17.598Z,3.83
2023-02-23T05:10:19.546Z,3.90
2023-02-23T05:13:22.755Z,3.82
2023-02-23T05:16:24.818Z,3.92
2023-02-23T05:19:27.359Z,3.71
2023-02-23T05:22:29.758Z,3.71
2023-02-23T05:25:32.903Z,3.75
2023-02-23T05:28:40.414Z,3.79
2023-02-23T05:31:43.136Z,3.86
2023-02-23T05:34:47.070Z,3.75
2023-02-23T05:37:48.966Z,3.66
2023-02-23T05:40:51.270Z,3.79
2023-02-23T05:43:55.156Z,3.72
2023-02-23T05:46:56.963Z,3.77
2023-02-23T05:49:59.056Z,4.01
2023-02-23T05:53:00.935Z,3.92
2023-02-23T05:56:04.106Z,3.97
2023-02-23T05:59:10.036Z,3.94
2023-02-23T06:02:11.910Z,3.86
2023-02-23T06:05:13.647Z,3.87
2023-02-23T06:08:16.721Z,3.88
2023-02-23T06:11:19.090Z,3.81
2023-02-23T06:14:22.966Z,3.89
2023-02-23T06:17:25.437Z,3.92
2023-02-23T06:20:27.537Z,4.07
2023-02-23T06:23:29.963Z,4.07
2023-02-23T06:26:32.000Z,4.07
2023-02-23T06:29:36.447Z,4.01
2023-02-23T06:32:38.631Z,4.05
2023-02-23T06:35:40.452Z,4.21
2023-02-23T06:38:42.211Z,4.26
2023-02-23T06:41:43.997Z,4.32
2023-02-23T06:44:47.360Z,4.37
2023-02-23T06:47:50.041Z,4.36
2023-02-23T06:50:52.062Z,4.39
2023-02-23T06:53:53.988Z,4.46
2023-02-23T06:56:55.756Z,4.55
2023-02-23T06:59:59.187Z,4.52
2023-02-23T07:03:03.118Z,4.53
2023-02-23T07:06:05.907Z,4.60
2023-02-23T07:09:08.092Z,4.59
2023-02-23T07:12:10.250Z,4.66
2023-02-23T07:15:13.677Z,4.63
2023-02-23T07:18:16.103Z,4.68
2023-02-23T07:21:18.616Z,4.74
2023-02-23T07:24:20.970Z,4.75
2023-02-23T07:27:24.956Z,4.88
2023-02-23T07:30:28.450Z,4.88
2023-02-23T07:33:30.223Z,4.97
2023-02-23T07:36:33.117Z,5.02
2023-02-23T07:39:35.267Z,5.07
2023-02-23T07:42:37.295Z,5.12
2023-02-23T07:45:42.405Z,5.15
2023-02-23T07:48:44.566Z,5.21
2023-02-23T07:51:46.569Z,5.26
2023-02-23T07:54:49.714Z,5.30
2023-02-23T07:57:51.593Z,5.37
2023-02-23T08:00:54.922Z,5.44
2023-02-23T08:03:59.797Z,5.52
2023-02-23T08:07:01.666Z,5.57
2023-02-23T08:10:03.930Z,5.63
2023-02-23T08:13:06.939Z,5.70
2023-02-23T08:16:10.709Z,5.82
2023-02-23T08:19:12.561Z,5.86
2023-02-23T08:22:14.316Z,5.91
2023-02-23T08:25:16.788Z,5.99
2023-02-23T08:28:18.858Z,6.07
2023-02-23T08:31:25.107Z,6.29
2023-02-23T08:34:28.852Z,6.42
2023-02-23T08:37:30.958Z,6.41
2023-02-23T08:40:34.204Z,6.57
2023-02-23T08:43:36.065Z,6.56
2023-02-23T08:46:39.639Z,6.55
2023-02-23T08:49:41.593Z,6.66
2023-02-23T08:52:44.475Z,6.75
2023-02-23T08:55:46.263Z,6.82
2023-02-23T08:58:49.246Z,6.91
2023-02-23T09:01:52.790Z,6.96
2023-02-23T09:04:54.733Z,6.98
2023-02-23T09:07:56.523Z,7.08
2023-02-23T09:10:59.503Z,7.05
2023-02-23T09:14:01.357Z,7.07
2023-02-23T09:17:08.323Z,7.12
2023-02-23T09:20:11.633Z,7.25
2023-02-23T09:23:14.244Z,7.30
2023-02-23T09:26:16.029Z,7.44
2023-02-23T09:29:17.990Z,7.46
2023-02-23T09:32:21.597Z,7.52
2023-02-23T09:35:24.659Z,7.53
2023-02-23T09:38:26.500Z,7.62
2023-02-23T09:42:04.472Z,7.65
2023-02-23T09:45:34.259Z,7.81
2023-02-23T09:48:39.920Z,7.76
2023-02-23T09:51:49.274Z,7.77
2023-02-23T09:54:50.888Z,7.82
2023-02-23T09:57:58.016Z,7.83
2023-02-23T10:01:18.384Z,7.90
2023-02-23T10:04:25.660Z,7.89
2023-02-23T10:07:40.113Z,7.85
2023-02-23T10:10:47.314Z,7.89
2023-02-23T10:14:00.359Z,7.96
2023-02-23T10:17:13.987Z,8.06
2023-02-23T10:20:25.839Z,8.21
2023-02-23T10:23:31.632Z,8.27
2023-02-23T10:26:41.594Z,8.44
2023-02-23T10:29:48.741Z,8.49
2023-02-23T10:33:00.584Z,8.60
2023-02-23T10:36:14.067Z,8.71
2023-02-23T10:39:15.947Z,8.91
2023-02-23T10:42:23.000Z,8.92
2023-02-23T10:45:27.855Z,9.07
2023-02-23T10:48:36.727Z,9.18
2023-02-23T10:51:43.103Z,9.17
2023-02-23T10:54:47.935Z,9.22
2023-02-23T10:57:51.081Z,9.33
2023-02-23T11:00:55.179Z,9.40
2023-02-23T11:04:05.632Z,9.40
2023-02-23T11:07:15.332Z,9.39
2023-02-23T11:10:26.074Z,9.50
2023-02-23T11:13:29.564Z,9.42
2023-02-23T11:16:39.591Z,9.51
2023-02-23T11:19:42.771Z,9.53
2023-02-23T11:22:46.616Z,9.55
2023-02-23T11:25:53.473Z,9.50
2023-02-23T11:28:58.079Z,9.61
2023-02-23T11:32:06.794Z,9.48
2023-02-23T11:35:25.182Z,9.52
2023-02-23T11:38:32.248Z,9.48
2023-02-23T11:41:35.838Z,9.46
2023-02-23T11:44:40.930Z,9.49
2023-02-23T11:47:49.447Z,9.48
2023-02-23T11:50:52.993Z,9.62
2023-02-23T11:53:56.839Z,9.51
2023-02-23T11:56:59.785Z,9.54
2023-02-23T12:00:09.866Z,9.59
2023-02-23T12:03:21.753Z,9.48
2023-02-23T12:06:30.827Z,9.52
2023-02-23T12:09:34.910Z,9.52
2023-02-23T12:12:46.695Z,9.57
2023-02-23T12:15:56.372Z,9.66
2023-02-23T12:19:02.551Z,9.66
2023-02-23T12:22:12.611Z,9.63
2023-02-23T12:25:27.191Z,9.61
2023-02-23T12:28:36.408Z,9.59
2023-02-23T12:31:45.970Z,9.62
2023-02-23T12:34:54.662Z,9.66
2023-02-23T12:38:03.443Z,9.65
2023-02-23T12:41:12.880Z,9.65
2023-02-23T12:44:30.633Z,9.62
2023-02-23T12:47:40.339Z,9.64
2023-02-23T12:50:50.972Z,9.71
2023-02-23T12:53:52.785Z,9.78
2023-02-23T12:57:08.095Z,9.76
2023-02-23T13:00:45.737Z,9.63
2023-02-23T13:04:31.896Z,9.78
2023-02-23T13:07:50.547Z,9.73
2023-02-23T13:11:05.788Z,9.83
2023-02-23T13:14:20.275Z,9.89
2023-02-23T13:17:32.782Z,9.97
2023-02-23T13:20:40.776Z,9.94
2023-02-23T13:23:59.354Z,10.02
2023-02-23T13:27:16.720Z,10.09
2023-02-23T13:30:20.251Z,10.08
2023-02-23T13:33:35.066Z,10.08
2023-02-23T13:36:44.806Z,10.13
2023-02-23T13:39:56.595Z,10.04
2023-02-23T13:43:13.521Z,10.10
2023-02-23T13:46:29.237Z,10.08
2023-02-23T13:49:38.347Z,10.05
2023-02-23T13:52:42.234Z,10.16
2023-02-23T13:55:50.215Z,10.13
2023-02-23T13:58:55.994Z,10.18
2023-02-23T14:02:06.686Z,10.16
2023-02-23T14:05:18.537Z,10.17
2023-02-23T14:08:31.314Z,10.11
2023-02-23T14:11:45.721Z,10.18
2023-02-23T14:14:47.739Z,10.12
2023-02-23T14:17:58.561Z,10.05
2023-02-23T14:21:12.417Z,9.94
2023-02-23T14:24:18.148Z,9.87
2023-02-23T14:27:40.329Z,9.91
2023-02-23T14:30:48.427Z,9.94
2023-02-23T14:33:58.513Z,9.93
2023-02-23T14:37:14.192Z,9.93
2023-02-23T14:40:20.993Z,9.89
2023-02-23T14:43:44.157Z,9.95
2023-02-23T14:46:56.998Z,9.83
2023-02-23T14:50:01.598Z,9.83
2023-02-23T14:53:06.570Z,9.74
2023-02-23T14:56:22.671Z,9.75
2023-02-23T14:59:27.610Z,9.70
2023-02-23T15:02:30.791Z,9.64
2023-02-23T15:05:37.690Z,9.69
2023-02-23T15:08:43.929Z,9.70
2023-02-23T15:11:49.740Z,9.67
2023-02-23T15:14:51.841Z,9.73
2023-02-23T15:17:58.432Z,9.72
2023-02-23T15:21:05.551Z,9.65
2023-02-23T15:24:13.509Z,9.67
2023-02-23T15:27:23.369Z,9.67
2023-02-23T15:30:27.313Z,9.62
2023-02-23T15:33:29.267Z,9.60
2023-02-23T15:36:34.835Z,9.66
2023-02-23T15:39:47.278Z,9.67
2023-02-23T15:42:51.563Z,9.61
2023-02-23T15:45:56.789Z,9.54
2023-02-23T15:49:01.269Z,9.58
2023-02-23T15:52:08.867Z,9.57
2023-02-23T15:55:15.774Z,9.51
2023-02-23T15:58:23.652Z,9.46
2023-02-23T16:01:29.043Z,9.52
2023-02-23T16:04:33.862Z,9.49
2023-02-23T16:07:41.767Z,9.49
2023-02-23T16:10:47.160Z,9.46
2023-02-23T16:13:52.966Z,9.47
2023-02-23T16:17:10.533Z,9.38
2023-02-23T16:20:17.560Z,9.30
2023-02-23T16:23:33.262Z,9.31
2023-02-23T16:26:49.231Z,9.34
2023-02-23T16:29:56.972Z,9.37
2023-02-23T16:33:08.075Z,9.33
2023-02-23T16:36:19.176Z,9.33
2023-02-23T16:39:28.808Z,9.33
2023-02-23T16:42:35.241Z,9.31
2023-02-23T16:45:40.427Z,9.29
2023-02-23T16:48:43.797Z,9.28
2023-02-23T16:51:46.980Z,9.26
2023-02-23T16:54:50.585Z,9.22
2023-02-23T16:57:57.872Z,9.18
2023-02-23T17:01:00.117Z,9.16
2023-02-23T17:04:02.147Z,9.15
2023-02-23T17:07:07.525Z,9.14
2023-02-23T17:10:17.120Z,9.11
2023-02-23T17:13:21.328Z,8.98
2023-02-23T17:16:24.229Z,8.97
2023-02-23T17:19:26.505Z,9.01
2023-02-23T17:22:28.843Z,8.99
2023-02-23T17:25:35.757Z,8.98
2023-02-23T17:28:41.381Z,8.92
2023-02-23T17:31:50.097Z,8.86
2023-02-23T17:34:52.706Z,8.82
2023-02-23T17:37:57.889Z,8.82
2023-02-23T17:41:03.002Z,8.80
2023-02-23T17:44:05.620Z,8.73
2023-02-23T17:47:09.056Z,8.60
2023-02-23T17:50:13.896Z,8.55
2023-02-23T17:53:15.721Z,8.47
2023-02-23T17:56:20.500Z,8.51
2023-02-23T17:59:24.374Z,8.57
2023-02-23T18:02:27.852Z,8.44
2023-02-23T18:05:30.717Z,8.42
2023-02-23T18:08:35.014Z,8.40
2023-02-23T18:11:42.052Z,8.19
2023-02-23T18:14:44.743Z,8.21
2023-02-23T18:17:48.521Z,8.22
2023-02-23T18:20:54.082Z,8.22
2023-02-23T18:23:56.735Z,8.35
2023-02-23T18:27:00.736Z,8.15
2023-02-23T18:30:04.439Z,8.01
2023-02-23T18:33:08.710Z,8.06
2023-02-23T18:36:19.516Z,8.06
2023-02-23T18:39:22.546Z,7.98
2023-02-23T18:42:27.688Z,8.08
2023-02-23T18:45:36.198Z,8.05
2023-02-23T18:48:41.301Z,8.08
2023-02-23T18:51:44.889Z,8.06
2023-02-23T18:54:54.734Z,8.09
2023-02-23T18:58:00.908Z,8.18
2023-02-23T19:01:15.501Z,8.10
2023-02-23T19:04:18.665Z,8.08
2023-02-23T19:07:22.514Z,8.13
2023-02-23T19:10:25.603Z,8.07
2023-02-23T19:13:33.075Z,7.97
2023-02-23T19:16:38.530Z,8.05
2023-02-23T19:19:41.519Z,7.91
2023-02-23T19:22:46.622Z,7.94
2023-02-23T19:25:51.017Z,7.87
2023-02-23T19:28:58.010Z,7.88
2023-02-23T19:32:01.033Z,7.82
2023-02-23T19:35:03.595Z,7.71
2023-02-23T19:38:09.607Z,7.68
2023-02-23T19:41:17.875Z,7.63
2023-02-23T19:44:25.186Z,7.61
2023-02-23T19:47:30.667Z,7.59
2023-02-23T19:50:34.555Z,7.76
2023-02-23T19:53:40.552Z,7.72
2023-02-23T19:56:47.200Z,7.74
2023-02-23T19:59:51.335Z,7.78
2023-02-23T20:02:55.085Z,7.80
2023-02-23T20:05:59.736Z,7.80
2023-02-23T20:09:04.921Z,7.83
2023-02-23T20:12:10.410Z,7.83
2023-02-23T20:15:15.962Z,7.61
2023-02-23T20:18:18.787Z,7.55
2023-02-23T20:21:28.314Z,7.54
2023-02-23T20:24:30.669Z,7.61
2023-02-23T20:27:37.334Z,7.65
2023-02-23T20:30:46.209Z,7.60
2023-02-23T20:33:49.650Z,7.66
2023-02-23T20:36:54.264Z,7.67
2023-02-23T20:39:56.895Z,7.64
2023-02-23T20:43:00.191Z,7.63
2023-02-23T20:46:07.496Z,7.69
2023-02-23T20:49:12.406Z,7.64
2023-02-23T20:52:16.328Z,7.49
2023-02-23T20:55:21.032Z,7.36
2023-02-23T20:58:25.056Z,7.39
2023-02-23T21:01:30.759Z,7.36
2023-02-23T21:04:35.373Z,7.33
2023-02-23T21:07:41.468Z,7.30
2023-02-23T21:10:44.571Z,7.41
2023-02-23T21:13:47.589Z,7.35
2023-02-23T21:16:53.985Z,7.38
2023-02-23T21:19:56.491Z,7.36
2023-02-23T21:22:59.497Z,7.34
2023-02-23T21:26:02.620Z,7.14
2023-02-23T21:29:05.542Z,7.12
2023-02-23T21:32:21.701Z,7.18
2023-02-23T21:35:24.164Z,7.06
2023-02-23T21:38:30.694Z,7.14
2023-02-23T21:41:34.138Z,7.22
2023-02-23T21:44:36.590Z,7.16
2023-02-23T21:47:45.724Z,7.21
2023-02-23T21:50:48.092Z,7.19
2023-02-23T21:53:51.340Z,7.27
2023-02-23T21:56:53.561Z,7.22
2023-02-23T21:59:58.406Z,7.26
2023-02-23T22:03:03.333Z,7.30
2023-02-23T22:06:06.976Z,7.33
2023-02-23T22:09:11.127Z,7.35
2023-02-23T22:12:13.130Z,7.32
2023-02-23T22:15:15.646Z,7.33
2023-02-23T22:18:25.287Z,7.36
2023-02-23T22:21:28.733Z,7.33
2023-02-23T22:24:30.658Z,7.33
2023-02-23T22:27:37.065Z,7.31
2023-02-23T22:30:42.012Z,7.30
2023-02-23T22:33:46.542Z,7.28
2023-02-23T22:36:48.462Z,7.28
2023-02-23T22:39:50.263Z,7.29
2023-02-23T22:42:52.054Z,7.25
2023-02-23T22:45:57.893Z,7.24
2023-02-23T22:49:01.056Z,7.23
2023-02-23T22:52:04.088Z,7.23
2023-02-23T22:55:08.481Z,7.18
2023-02-23T22:58:10.267Z,7.14
2023-02-23T23:01:13.613Z,7.13
2023-02-23T23:04:19.856Z,7.05
2023-02-23T23:07:21.651Z,7.06
2023-02-23T23:10:23.423Z,6.89
2023-02-23T23:13:25.774Z,6.82
2023-02-23T23:16:32.180Z,6.79
2023-02-23T23:19:35.696Z,6.77
2023-02-23T23:22:38.196Z,6.64
2023-02-23T23:25:46.901Z,6.62
2023-02-23T23:28:51.537Z,6.72
2023-02-23T23:31:53.688Z,6.78
2023-02-23T23:34:58.169Z,6.63
2023-02-23T23:38:00.235Z,6.50
2023-02-23T23:41:06.183Z,6.46
2023-02-23T23:44:08.623Z,6.42
2023-02-23T23:47:12.036Z,6.30
2023-02-23T23:50:16.628Z,6.28
2023-02-23T23:53:18.421Z,6.26
2023-02-23T23:56:21.223Z,6.19
2023-02-23T23:59:25.761Z,6.15
